sensor_id;sensor_type;location;lat;lon;timestamp;P1;durP1;ratioP1;P2;durP2;ratioP2
61487;SDS011;47351;53.326;-6.298;2022-10-30T00:01:37;11.70;;;1.60;;
61487;SDS011;47351;53.326;-6.298;2022-10-30T00:04:08;12.60;;;1.90;;
61487;SDS011;47351;53.326;-6.298;2022-10-30T00:06:40;11.90;;;2.00;;
61487;SDS011;47351;53.326;-6.298;2022-10-30T00:09:11;16.20;;;2.20;;
61487;SDS011;47351;53.326;-6.298;2022-10-30T00:11:42;12.40;;;2.10;;
61487;SDS011;47351;53.326;-6.298;2022-10-30T00:14:13;12.90;;;1.70;;
61487;SDS011;47351;53.326;-6.298;2022-10-30T00:16:45;11.50;;;2.20;;
61487;SDS011;47351;53.326;-6.298;2022-10-30T00:19:16;13.90;;;1.80;;
61487;SDS011;47351;53.326;-6.298;2022-10-30T00:21:47;12.40;;;1.90;;
61487;SDS011;47351;53.326;-6.298;2022-10-30T00:24:18;18.70;;;2.20;;
61487;SDS011;47351;53.326;-6.298;2022-10-30T00:26:50;13.60;;;2.00;;
61487;SDS011;47351;53.326;-6.298;2022-10-30T00:29:21;13.70;;;1.70;;
61487;SDS011;47351;53.326;-6.298;2022-10-30T00:31:53;13.00;;;2.00;;
61487;SDS011;47351;53.326;-6.298;2022-10-30T00:34:24;13.80;;;1.90;;
61487;SDS011;47351;53.326;-6.298;2022-10-30T00:36:55;13.40;;;1.90;;
61487;SDS011;47351;53.326;-6.298;2022-10-30T00:39:27;13.30;;;1.90;;
61487;SDS011;47351;53.326;-6.298;2022-10-30T00:41:58;16.70;;;2.20;;
61487;SDS011;47351;53.326;-6.298;2022-10-30T00:44:32;15.30;;;2.30;;
61487;SDS011;47351;53.326;-6.298;2022-10-30T00:47:16;11.30;;;1.80;;
61487;SDS011;47351;53.326;-6.298;2022-10-30T00:49:56;16.10;;;2.20;;
61487;SDS011;47351;53.326;-6.298;2022-10-30T00:52:33;11.90;;;1.80;;
61487;SDS011;47351;53.326;-6.298;2022-10-30T00:55:09;12.60;;;1.80;;
61487;SDS011;47351;53.326;-6.298;2022-10-30T00:57:43;13.70;;;1.80;;
61487;SDS011;47351;53.326;-6.298;2022-10-30T01:00:16;14.50;;;2.10;;
61487;SDS011;47351;53.326;-6.298;2022-10-30T01:02:50;17.20;;;2.20;;
61487;SDS011;47351;53.326;-6.298;2022-10-30T01:05:23;13.10;;;1.70;;
61487;SDS011;47351;53.326;-6.298;2022-10-30T01:07:57;12.00;;;2.10;;
61487;SDS011;47351;53.326;-6.298;2022-10-30T01:10:29;14.70;;;1.90;;
61487;SDS011;47351;53.326;-6.298;2022-10-30T01:13:01;18.10;;;2.30;;
61487;SDS011;47351;53.326;-6.298;2022-10-30T01:15:33;12.30;;;2.20;;
61487;SDS011;47351;53.326;-6.298;2022-10-30T01:18:15;10.40;;;2.00;;
61487;SDS011;47351;53.326;-6.298;2022-10-30T01:21:06;13.00;;;2.10;;
61487;SDS011;47351;53.326;-6.298;2022-10-30T01:23:47;14.00;;;1.90;;
61487;SDS011;47351;53.326;-6.298;2022-10-30T01:26:27;14.50;;;1.80;;
61487;SDS011;47351;53.326;-6.298;2022-10-30T01:29:10;12.00;;;1.80;;
61487;SDS011;47351;53.326;-6.298;2022-10-30T01:32:01;10.00;;;2.00;;
61487;SDS011;47351;53.326;-6.298;2022-10-30T01:34:46;10.30;;;2.00;;
61487;SDS011;47351;53.326;-6.298;2022-10-30T01:37:30;10.00;;;2.20;;
61487;SDS011;47351;53.326;-6.298;2022-10-30T01:40:07;15.80;;;2.30;;
61487;SDS011;47351;53.326;-6.298;2022-10-30T01:42:46;14.90;;;2.20;;
61487;SDS011;47351;53.326;-6.298;2022-10-30T01:45:44;10.90;;;2.30;;
61487;SDS011;47351;53.326;-6.298;2022-10-30T01:51:26;14.70;;;2.30;;
61487;SDS011;47351;53.326;-6.298;2022-10-30T01:54:11;11.80;;;1.80;;
61487;SDS011;47351;53.326;-6.298;2022-10-30T01:56:54;12.20;;;2.00;;
61487;SDS011;47351;53.326;-6.298;2022-10-30T01:59:33;15.80;;;2.30;;
61487;SDS011;47351;53.326;-6.298;2022-10-30T02:02:10;15.00;;;2.30;;
61487;SDS011;47351;53.326;-6.298;2022-10-30T02:04:42;10.50;;;2.50;;
61487;SDS011;47351;53.326;-6.298;2022-10-30T02:07:14;17.80;;;2.60;;
61487;SDS011;47351;53.326;-6.298;2022-10-30T02:09:49;12.90;;;2.20;;
61487;SDS011;47351;53.326;-6.298;2022-10-30T02:12:22;18.10;;;2.90;;
61487;SDS011;47351;53.326;-6.298;2022-10-30T02:14:55;14.40;;;2.50;;
61487;SDS011;47351;53.326;-6.298;2022-10-30T02:17:28;14.90;;;2.20;;
61487;SDS011;47351;53.326;-6.298;2022-10-30T02:19:59;13.40;;;2.10;;
61487;SDS011;47351;53.326;-6.298;2022-10-30T02:22:31;12.10;;;1.90;;
61487;SDS011;47351;53.326;-6.298;2022-10-30T02:25:02;12.20;;;2.10;;
61487;SDS011;47351;53.326;-6.298;2022-10-30T02:27:35;16.20;;;2.10;;
61487;SDS011;47351;53.326;-6.298;2022-10-30T02:30:09;13.30;;;2.40;;
61487;SDS011;47351;53.326;-6.298;2022-10-30T02:32:41;16.00;;;1.90;;
61487;SDS011;47351;53.326;-6.298;2022-10-30T02:35:12;13.50;;;2.10;;
61487;SDS011;47351;53.326;-6.298;2022-10-30T02:37:44;16.50;;;2.30;;
61487;SDS011;47351;53.326;-6.298;2022-10-30T02:40:17;15.30;;;2.30;;
61487;SDS011;47351;53.326;-6.298;2022-10-30T02:42:51;13.50;;;2.30;;
61487;SDS011;47351;53.326;-6.298;2022-10-30T02:45:23;14.10;;;2.30;;
61487;SDS011;47351;53.326;-6.298;2022-10-30T02:47:54;18.30;;;2.50;;
61487;SDS011;47351;53.326;-6.298;2022-10-30T02:50:28;20.00;;;3.00;;
61487;SDS011;47351;53.326;-6.298;2022-10-30T02:52:59;14.50;;;2.10;;
61487;SDS011;47351;53.326;-6.298;2022-10-30T02:55:30;15.20;;;2.10;;
61487;SDS011;47351;53.326;-6.298;2022-10-30T02:58:01;14.20;;;2.30;;
61487;SDS011;47351;53.326;-6.298;2022-10-30T03:00:34;15.00;;;2.70;;
61487;SDS011;47351;53.326;-6.298;2022-10-30T03:03:06;15.50;;;2.10;;
61487;SDS011;47351;53.326;-6.298;2022-10-30T03:05:37;17.70;;;2.40;;
61487;SDS011;47351;53.326;-6.298;2022-10-30T03:08:08;11.70;;;2.00;;
61487;SDS011;47351;53.326;-6.298;2022-10-30T03:10:39;18.50;;;2.10;;
61487;SDS011;47351;53.326;-6.298;2022-10-30T03:13:10;16.80;;;2.80;;
61487;SDS011;47351;53.326;-6.298;2022-10-30T03:15:44;13.50;;;1.90;;
61487;SDS011;47351;53.326;-6.298;2022-10-30T03:18:16;14.40;;;2.60;;
61487;SDS011;47351;53.326;-6.298;2022-10-30T03:20:47;12.50;;;2.20;;
61487;SDS011;47351;53.326;-6.298;2022-10-30T03:23:18;14.20;;;2.30;;
61487;SDS011;47351;53.326;-6.298;2022-10-30T03:25:51;13.30;;;2.20;;
61487;SDS011;47351;53.326;-6.298;2022-10-30T03:28:25;12.50;;;2.60;;
61487;SDS011;47351;53.326;-6.298;2022-10-30T03:30:58;12.00;;;2.50;;
61487;SDS011;47351;53.326;-6.298;2022-10-30T03:33:31;14.10;;;2.20;;
61487;SDS011;47351;53.326;-6.298;2022-10-30T03:36:03;12.40;;;2.40;;
61487;SDS011;47351;53.326;-6.298;2022-10-30T03:38:35;15.60;;;2.40;;
61487;SDS011;47351;53.326;-6.298;2022-10-30T03:41:09;15.10;;;2.50;;
61487;SDS011;47351;53.326;-6.298;2022-10-30T03:43:40;15.90;;;2.50;;
61487;SDS011;47351;53.326;-6.298;2022-10-30T03:46:11;13.40;;;2.00;;
61487;SDS011;47351;53.326;-6.298;2022-10-30T03:48:42;10.00;;;1.60;;
61487;SDS011;47351;53.326;-6.298;2022-10-30T03:51:16;15.00;;;2.90;;
61487;SDS011;47351;53.326;-6.298;2022-10-30T03:53:48;14.80;;;2.00;;
61487;SDS011;47351;53.326;-6.298;2022-10-30T03:56:19;15.00;;;1.90;;
61487;SDS011;47351;53.326;-6.298;2022-10-30T03:58:53;13.40;;;1.80;;
61487;SDS011;47351;53.326;-6.298;2022-10-30T04:01:24;13.60;;;2.00;;
61487;SDS011;47351;53.326;-6.298;2022-10-30T04:03:57;16.90;;;2.30;;
61487;SDS011;47351;53.326;-6.298;2022-10-30T04:06:29;13.70;;;2.20;;
61487;SDS011;47351;53.326;-6.298;2022-10-30T04:09:01;16.00;;;2.40;;
61487;SDS011;47351;53.326;-6.298;2022-10-30T04:11:36;16.10;;;2.00;;
61487;SDS011;47351;53.326;-6.298;2022-10-30T04:14:07;13.40;;;2.10;;
61487;SDS011;47351;53.326;-6.298;2022-10-30T04:16:38;17.40;;;2.50;;
61487;SDS011;47351;53.326;-6.298;2022-10-30T04:19:10;13.80;;;2.90;;
61487;SDS011;47351;53.326;-6.298;2022-10-30T04:21:41;13.30;;;2.50;;
61487;SDS011;47351;53.326;-6.298;2022-10-30T04:24:15;13.70;;;1.80;;
61487;SDS011;47351;53.326;-6.298;2022-10-30T04:26:48;17.10;;;2.60;;
61487;SDS011;47351;53.326;-6.298;2022-10-30T04:29:19;13.10;;;2.40;;
61487;SDS011;47351;53.326;-6.298;2022-10-30T04:31:50;12.90;;;2.30;;
61487;SDS011;47351;53.326;-6.298;2022-10-30T04:34:22;10.60;;;1.80;;
61487;SDS011;47351;53.326;-6.298;2022-10-30T04:36:53;14.10;;;2.10;;
61487;SDS011;47351;53.326;-6.298;2022-10-30T04:39:25;14.20;;;2.20;;
61487;SDS011;47351;53.326;-6.298;2022-10-30T04:41:58;12.50;;;1.90;;
61487;SDS011;47351;53.326;-6.298;2022-10-30T04:44:32;12.70;;;1.90;;
61487;SDS011;47351;53.326;-6.298;2022-10-30T04:47:03;14.10;;;2.50;;
61487;SDS011;47351;53.326;-6.298;2022-10-30T04:49:34;13.30;;;1.70;;
61487;SDS011;47351;53.326;-6.298;2022-10-30T04:52:05;8.30;;;1.30;;
61487;SDS011;47351;53.326;-6.298;2022-10-30T04:54:38;5.00;;;0.80;;
61487;SDS011;47351;53.326;-6.298;2022-10-30T04:57:10;1.70;;;0.40;;
61487;SDS011;47351;53.326;-6.298;2022-10-30T04:59:43;0.40;;;0.30;;
61487;SDS011;47351;53.326;-6.298;2022-10-30T05:02:14;0.70;;;0.30;;
61487;SDS011;47351;53.326;-6.298;2022-10-30T05:04:47;0.90;;;0.40;;
61487;SDS011;47351;53.326;-6.298;2022-10-30T05:07:18;0.60;;;0.40;;
61487;SDS011;47351;53.326;-6.298;2022-10-30T05:09:49;1.20;;;0.40;;
61487;SDS011;47351;53.326;-6.298;2022-10-30T05:12:21;0.60;;;0.30;;
61487;SDS011;47351;53.326;-6.298;2022-10-30T05:14:54;3.30;;;1.20;;
61487;SDS011;47351;53.326;-6.298;2022-10-30T05:17:25;2.60;;;0.40;;
61487;SDS011;47351;53.326;-6.298;2022-10-30T05:19:58;0.80;;;0.40;;
61487;SDS011;47351;53.326;-6.298;2022-10-30T05:22:29;3.40;;;0.60;;
61487;SDS011;47351;53.326;-6.298;2022-10-30T05:25:01;1.60;;;0.40;;
61487;SDS011;47351;53.326;-6.298;2022-10-30T05:27:32;2.70;;;0.70;;
61487;SDS011;47351;53.326;-6.298;2022-10-30T05:30:04;3.00;;;0.50;;
61487;SDS011;47351;53.326;-6.298;2022-10-30T05:32:36;2.30;;;0.50;;
61487;SDS011;47351;53.326;-6.298;2022-10-30T05:35:08;5.40;;;0.60;;
61487;SDS011;47351;53.326;-6.298;2022-10-30T05:37:39;6.20;;;0.70;;
61487;SDS011;47351;53.326;-6.298;2022-10-30T05:40:11;2.60;;;0.70;;
61487;SDS011;47351;53.326;-6.298;2022-10-30T05:42:45;3.20;;;0.60;;
61487;SDS011;47351;53.326;-6.298;2022-10-30T05:45:17;3.20;;;0.70;;
61487;SDS011;47351;53.326;-6.298;2022-10-30T05:47:54;1.80;;;0.60;;
61487;SDS011;47351;53.326;-6.298;2022-10-30T05:50:29;1.30;;;0.50;;
61487;SDS011;47351;53.326;-6.298;2022-10-30T05:53:15;2.20;;;0.50;;
61487;SDS011;47351;53.326;-6.298;2022-10-30T05:55:46;2.30;;;0.80;;
61487;SDS011;47351;53.326;-6.298;2022-10-30T05:58:22;3.00;;;0.70;;
61487;SDS011;47351;53.326;-6.298;2022-10-30T06:00:55;3.30;;;1.10;;
61487;SDS011;47351;53.326;-6.298;2022-10-30T06:03:38;2.00;;;0.70;;
61487;SDS011;47351;53.326;-6.298;2022-10-30T06:06:11;1.00;;;0.50;;
61487;SDS011;47351;53.326;-6.298;2022-10-30T06:08:44;1.90;;;0.60;;
61487;SDS011;47351;53.326;-6.298;2022-10-30T06:11:30;1.60;;;0.50;;
61487;SDS011;47351;53.326;-6.298;2022-10-30T06:14:03;1.40;;;0.60;;
61487;SDS011;47351;53.326;-6.298;2022-10-30T06:16:45;2.20;;;0.70;;
61487;SDS011;47351;53.326;-6.298;2022-10-30T06:19:32;3.30;;;0.50;;
61487;SDS011;47351;53.326;-6.298;2022-10-30T06:22:15;1.80;;;0.50;;
61487;SDS011;47351;53.326;-6.298;2022-10-30T06:24:56;1.60;;;0.40;;
61487;SDS011;47351;53.326;-6.298;2022-10-30T06:27:48;2.80;;;0.50;;
61487;SDS011;47351;53.326;-6.298;2022-10-30T06:30:19;2.20;;;0.50;;
61487;SDS011;47351;53.326;-6.298;2022-10-30T06:32:55;2.30;;;0.50;;
61487;SDS011;47351;53.326;-6.298;2022-10-30T06:35:28;2.80;;;0.70;;
61487;SDS011;47351;53.326;-6.298;2022-10-30T06:38:01;4.10;;;0.60;;
61487;SDS011;47351;53.326;-6.298;2022-10-30T06:40:35;3.10;;;0.70;;
61487;SDS011;47351;53.326;-6.298;2022-10-30T06:43:33;2.50;;;0.80;;
61487;SDS011;47351;53.326;-6.298;2022-10-30T06:46:09;5.60;;;1.00;;
61487;SDS011;47351;53.326;-6.298;2022-10-30T06:48:43;1.60;;;0.60;;
61487;SDS011;47351;53.326;-6.298;2022-10-30T06:51:16;2.80;;;0.60;;
61487;SDS011;47351;53.326;-6.298;2022-10-30T06:53:47;5.50;;;0.80;;
61487;SDS011;47351;53.326;-6.298;2022-10-30T06:56:37;5.70;;;1.00;;
61487;SDS011;47351;53.326;-6.298;2022-10-30T06:59:18;6.40;;;1.20;;
61487;SDS011;47351;53.326;-6.298;2022-10-30T07:01:55;6.20;;;1.10;;
61487;SDS011;47351;53.326;-6.298;2022-10-30T07:04:39;5.50;;;1.00;;
61487;SDS011;47351;53.326;-6.298;2022-10-30T07:07:12;6.20;;;1.10;;
61487;SDS011;47351;53.326;-6.298;2022-10-30T07:09:44;3.10;;;0.80;;
61487;SDS011;47351;53.326;-6.298;2022-10-30T07:12:17;4.20;;;0.80;;
61487;SDS011;47351;53.326;-6.298;2022-10-30T07:15:11;4.70;;;1.10;;
61487;SDS011;47351;53.326;-6.298;2022-10-30T07:17:54;5.90;;;1.20;;
61487;SDS011;47351;53.326;-6.298;2022-10-30T07:20:29;4.20;;;1.10;;
61487;SDS011;47351;53.326;-6.298;2022-10-30T07:23:01;6.50;;;1.00;;
61487;SDS011;47351;53.326;-6.298;2022-10-30T07:25:33;6.40;;;1.10;;
61487;SDS011;47351;53.326;-6.298;2022-10-30T07:28:10;4.40;;;1.40;;
61487;SDS011;47351;53.326;-6.298;2022-10-30T07:30:44;5.10;;;1.00;;
61487;SDS011;47351;53.326;-6.298;2022-10-30T07:33:47;5.70;;;1.30;;
61487;SDS011;47351;53.326;-6.298;2022-10-30T07:36:38;5.90;;;1.30;;
61487;SDS011;47351;53.326;-6.298;2022-10-30T07:39:29;5.50;;;1.10;;
61487;SDS011;47351;53.326;-6.298;2022-10-30T07:42:19;6.20;;;1.20;;
61487;SDS011;47351;53.326;-6.298;2022-10-30T07:45:25;3.90;;;0.90;;
61487;SDS011;47351;53.326;-6.298;2022-10-30T07:51:00;7.40;;;1.10;;
61487;SDS011;47351;53.326;-6.298;2022-10-30T07:53:32;7.00;;;1.00;;
61487;SDS011;47351;53.326;-6.298;2022-10-30T07:56:05;6.90;;;1.00;;
61487;SDS011;47351;53.326;-6.298;2022-10-30T07:58:52;7.60;;;1.00;;
61487;SDS011;47351;53.326;-6.298;2022-10-30T08:01:32;7.70;;;1.20;;
61487;SDS011;47351;53.326;-6.298;2022-10-30T08:04:23;6.20;;;1.30;;
61487;SDS011;47351;53.326;-6.298;2022-10-30T08:06:58;7.40;;;1.20;;
61487;SDS011;47351;53.326;-6.298;2022-10-30T08:09:30;12.40;;;1.40;;
61487;SDS011;47351;53.326;-6.298;2022-10-30T08:12:02;6.20;;;1.10;;
61487;SDS011;47351;53.326;-6.298;2022-10-30T08:14:34;13.20;;;2.50;;
61487;SDS011;47351;53.326;-6.298;2022-10-30T08:17:05;6.10;;;1.20;;
61487;SDS011;47351;53.326;-6.298;2022-10-30T08:19:38;8.20;;;2.00;;
61487;SDS011;47351;53.326;-6.298;2022-10-30T08:22:09;8.70;;;1.80;;
61487;SDS011;47351;53.326;-6.298;2022-10-30T08:24:41;8.20;;;1.20;;
61487;SDS011;47351;53.326;-6.298;2022-10-30T08:27:13;10.20;;;1.40;;
61487;SDS011;47351;53.326;-6.298;2022-10-30T08:29:44;8.20;;;1.40;;
61487;SDS011;47351;53.326;-6.298;2022-10-30T08:32:17;6.90;;;1.20;;
61487;SDS011;47351;53.326;-6.298;2022-10-30T08:35:08;16.40;;;1.30;;
61487;SDS011;47351;53.326;-6.298;2022-10-30T08:37:46;11.30;;;1.50;;
61487;SDS011;47351;53.326;-6.298;2022-10-30T08:40:19;6.60;;;1.20;;
61487;SDS011;47351;53.326;-6.298;2022-10-30T08:42:59;5.40;;;1.10;;
61487;SDS011;47351;53.326;-6.298;2022-10-30T08:45:31;8.10;;;1.90;;
61487;SDS011;47351;53.326;-6.298;2022-10-30T08:48:10;9.00;;;1.50;;
61487;SDS011;47351;53.326;-6.298;2022-10-30T08:50:44;12.00;;;1.60;;
61487;SDS011;47351;53.326;-6.298;2022-10-30T08:53:19;8.10;;;1.50;;
61487;SDS011;47351;53.326;-6.298;2022-10-30T08:55:54;7.20;;;1.40;;
61487;SDS011;47351;53.326;-6.298;2022-10-30T08:58:29;11.60;;;1.70;;
61487;SDS011;47351;53.326;-6.298;2022-10-30T09:01:01;9.90;;;1.70;;
61487;SDS011;47351;53.326;-6.298;2022-10-30T09:03:51;7.80;;;1.30;;
61487;SDS011;47351;53.326;-6.298;2022-10-30T09:06:45;10.00;;;1.30;;
61487;SDS011;47351;53.326;-6.298;2022-10-30T09:09:36;7.80;;;1.50;;
61487;SDS011;47351;53.326;-6.298;2022-10-30T09:12:08;8.50;;;1.70;;
61487;SDS011;47351;53.326;-6.298;2022-10-30T09:14:42;9.10;;;1.40;;
61487;SDS011;47351;53.326;-6.298;2022-10-30T09:17:14;10.90;;;1.50;;
61487;SDS011;47351;53.326;-6.298;2022-10-30T09:19:45;9.30;;;1.50;;
61487;SDS011;47351;53.326;-6.298;2022-10-30T09:22:22;7.80;;;1.40;;
61487;SDS011;47351;53.326;-6.298;2022-10-30T09:24:54;10.20;;;1.60;;
61487;SDS011;47351;53.326;-6.298;2022-10-30T09:27:52;8.20;;;1.50;;
61487;SDS011;47351;53.326;-6.298;2022-10-30T09:30:25;9.40;;;1.30;;
61487;SDS011;47351;53.326;-6.298;2022-10-30T09:32:57;9.70;;;1.20;;
61487;SDS011;47351;53.326;-6.298;2022-10-30T09:36:04;9.40;;;1.30;;
61487;SDS011;47351;53.326;-6.298;2022-10-30T09:38:36;7.40;;;1.10;;
61487;SDS011;47351;53.326;-6.298;2022-10-30T09:41:12;14.20;;;1.70;;
61487;SDS011;47351;53.326;-6.298;2022-10-30T09:44:05;7.90;;;1.40;;
61487;SDS011;47351;53.326;-6.298;2022-10-30T09:46:59;7.00;;;1.40;;
61487;SDS011;47351;53.326;-6.298;2022-10-30T09:49:52;8.00;;;1.40;;
61487;SDS011;47351;53.326;-6.298;2022-10-30T09:52:34;6.70;;;1.60;;
61487;SDS011;47351;53.326;-6.298;2022-10-30T09:55:20;8.50;;;1.30;;
61487;SDS011;47351;53.326;-6.298;2022-10-30T09:58:01;9.30;;;1.60;;
61487;SDS011;47351;53.326;-6.298;2022-10-30T10:00:44;10.50;;;1.40;;
61487;SDS011;47351;53.326;-6.298;2022-10-30T10:03:31;8.40;;;1.30;;
61487;SDS011;47351;53.326;-6.298;2022-10-30T10:06:33;7.30;;;1.20;;
61487;SDS011;47351;53.326;-6.298;2022-10-30T10:09:30;6.80;;;1.20;;
61487;SDS011;47351;53.326;-6.298;2022-10-30T10:12:24;9.20;;;1.60;;
61487;SDS011;47351;53.326;-6.298;2022-10-30T10:15:01;8.20;;;2.50;;
61487;SDS011;47351;53.326;-6.298;2022-10-30T10:17:40;11.00;;;1.40;;
61487;SDS011;47351;53.326;-6.298;2022-10-30T10:20:14;8.80;;;1.70;;
61487;SDS011;47351;53.326;-6.298;2022-10-30T10:22:53;7.50;;;1.30;;
61487;SDS011;47351;53.326;-6.298;2022-10-30T10:25:28;6.90;;;1.20;;
61487;SDS011;47351;53.326;-6.298;2022-10-30T10:28:05;6.80;;;1.10;;
61487;SDS011;47351;53.326;-6.298;2022-10-30T10:30:46;6.70;;;1.30;;
61487;SDS011;47351;53.326;-6.298;2022-10-30T10:33:27;10.80;;;1.30;;
61487;SDS011;47351;53.326;-6.298;2022-10-30T10:36:22;8.30;;;1.20;;
61487;SDS011;47351;53.326;-6.298;2022-10-30T10:42:03;9.10;;;1.20;;
61487;SDS011;47351;53.326;-6.298;2022-10-30T10:44:51;6.50;;;1.30;;
61487;SDS011;47351;53.326;-6.298;2022-10-30T10:47:38;6.30;;;1.20;;
61487;SDS011;47351;53.326;-6.298;2022-10-30T10:50:33;7.10;;;1.20;;
61487;SDS011;47351;53.326;-6.298;2022-10-30T10:53:11;6.40;;;1.10;;
61487;SDS011;47351;53.326;-6.298;2022-10-30T10:55:49;8.40;;;3.70;;
61487;SDS011;47351;53.326;-6.298;2022-10-30T10:58:26;7.80;;;1.40;;
61487;SDS011;47351;53.326;-6.298;2022-10-30T11:01:01;7.00;;;1.50;;
61487;SDS011;47351;53.326;-6.298;2022-10-30T11:03:35;7.70;;;1.60;;
61487;SDS011;47351;53.326;-6.298;2022-10-30T11:06:21;6.90;;;1.50;;
61487;SDS011;47351;53.326;-6.298;2022-10-30T11:08:57;8.00;;;1.20;;
61487;SDS011;47351;53.326;-6.298;2022-10-30T11:11:40;7.40;;;1.40;;
61487;SDS011;47351;53.326;-6.298;2022-10-30T11:14:15;6.50;;;1.70;;
61487;SDS011;47351;53.326;-6.298;2022-10-30T11:16:51;4.30;;;1.50;;
61487;SDS011;47351;53.326;-6.298;2022-10-30T11:19:30;4.50;;;1.00;;
61487;SDS011;47351;53.326;-6.298;2022-10-30T11:22:02;5.40;;;1.10;;
61487;SDS011;47351;53.326;-6.298;2022-10-30T11:24:41;4.60;;;1.10;;
61487;SDS011;47351;53.326;-6.298;2022-10-30T11:27:22;4.20;;;0.90;;
61487;SDS011;47351;53.326;-6.298;2022-10-30T11:29:58;5.10;;;1.00;;
61487;SDS011;47351;53.326;-6.298;2022-10-30T11:32:32;3.70;;;0.80;;
61487;SDS011;47351;53.326;-6.298;2022-10-30T11:35:10;5.90;;;1.30;;
61487;SDS011;47351;53.326;-6.298;2022-10-30T11:37:43;5.40;;;1.10;;
61487;SDS011;47351;53.326;-6.298;2022-10-30T11:40:17;4.30;;;1.00;;
61487;SDS011;47351;53.326;-6.298;2022-10-30T11:42:57;7.70;;;1.30;;
61487;SDS011;47351;53.326;-6.298;2022-10-30T11:45:31;5.60;;;1.10;;
61487;SDS011;47351;53.326;-6.298;2022-10-30T11:48:09;6.80;;;1.40;;
61487;SDS011;47351;53.326;-6.298;2022-10-30T11:50:48;4.80;;;1.00;;
61487;SDS011;47351;53.326;-6.298;2022-10-30T11:53:24;5.80;;;1.30;;
61487;SDS011;47351;53.326;-6.298;2022-10-30T11:56:02;4.30;;;0.90;;
61487;SDS011;47351;53.326;-6.298;2022-10-30T11:58:43;4.90;;;0.90;;
61487;SDS011;47351;53.326;-6.298;2022-10-30T12:01:18;4.60;;;0.90;;
61487;SDS011;47351;53.326;-6.298;2022-10-30T12:03:52;5.00;;;1.50;;
61487;SDS011;47351;53.326;-6.298;2022-10-30T12:06:29;4.50;;;1.00;;
61487;SDS011;47351;53.326;-6.298;2022-10-30T12:09:01;6.20;;;2.50;;
61487;SDS011;47351;53.326;-6.298;2022-10-30T12:11:39;6.10;;;2.50;;
61487;SDS011;47351;53.326;-6.298;2022-10-30T12:14:18;5.60;;;1.50;;
61487;SDS011;47351;53.326;-6.298;2022-10-30T12:16:51;4.10;;;1.10;;
61487;SDS011;47351;53.326;-6.298;2022-10-30T12:19:24;4.30;;;1.10;;
61487;SDS011;47351;53.326;-6.298;2022-10-30T12:21:55;4.10;;;1.20;;
61487;SDS011;47351;53.326;-6.298;2022-10-30T12:24:34;2.90;;;0.80;;
61487;SDS011;47351;53.326;-6.298;2022-10-30T12:27:11;2.80;;;0.90;;
61487;SDS011;47351;53.326;-6.298;2022-10-30T12:29:54;4.00;;;0.90;;
61487;SDS011;47351;53.326;-6.298;2022-10-30T12:32:39;3.60;;;0.90;;
61487;SDS011;47351;53.326;-6.298;2022-10-30T12:35:19;3.90;;;0.80;;
61487;SDS011;47351;53.326;-6.298;2022-10-30T12:38:00;2.80;;;0.90;;
61487;SDS011;47351;53.326;-6.298;2022-10-30T12:40:36;4.30;;;1.00;;
61487;SDS011;47351;53.326;-6.298;2022-10-30T12:43:11;3.90;;;0.70;;
61487;SDS011;47351;53.326;-6.298;2022-10-30T12:45:45;5.90;;;1.10;;
61487;SDS011;47351;53.326;-6.298;2022-10-30T12:48:21;5.40;;;1.20;;
61487;SDS011;47351;53.326;-6.298;2022-10-30T12:51:00;6.40;;;1.00;;
61487;SDS011;47351;53.326;-6.298;2022-10-30T12:53:49;4.80;;;0.90;;
61487;SDS011;47351;53.326;-6.298;2022-10-30T12:56:28;4.60;;;0.90;;
61487;SDS011;47351;53.326;-6.298;2022-10-30T12:59:11;4.20;;;0.90;;
61487;SDS011;47351;53.326;-6.298;2022-10-30T13:01:56;3.60;;;0.80;;
61487;SDS011;47351;53.326;-6.298;2022-10-30T13:04:34;4.60;;;0.90;;
61487;SDS011;47351;53.326;-6.298;2022-10-30T13:07:10;4.70;;;1.10;;
61487;SDS011;47351;53.326;-6.298;2022-10-30T13:09:47;4.20;;;1.00;;
61487;SDS011;47351;53.326;-6.298;2022-10-30T13:12:25;3.00;;;0.90;;
61487;SDS011;47351;53.326;-6.298;2022-10-30T13:15:03;5.90;;;1.30;;
61487;SDS011;47351;53.326;-6.298;2022-10-30T13:17:38;3.60;;;1.10;;
61487;SDS011;47351;53.326;-6.298;2022-10-30T13:20:12;4.20;;;1.00;;
61487;SDS011;47351;53.326;-6.298;2022-10-30T13:22:46;4.70;;;1.40;;
61487;SDS011;47351;53.326;-6.298;2022-10-30T13:25:23;5.70;;;1.20;;
61487;SDS011;47351;53.326;-6.298;2022-10-30T13:28:03;6.00;;;1.10;;
61487;SDS011;47351;53.326;-6.298;2022-10-30T13:30:42;6.70;;;1.50;;
61487;SDS011;47351;53.326;-6.298;2022-10-30T13:33:25;6.00;;;1.20;;
61487;SDS011;47351;53.326;-6.298;2022-10-30T13:36:06;3.50;;;0.90;;
61487;SDS011;47351;53.326;-6.298;2022-10-30T13:38:46;8.40;;;1.30;;
61487;SDS011;47351;53.326;-6.298;2022-10-30T13:41:29;5.50;;;1.30;;
61487;SDS011;47351;53.326;-6.298;2022-10-30T13:44:10;5.80;;;1.20;;
61487;SDS011;47351;53.326;-6.298;2022-10-30T13:46:57;6.00;;;1.80;;
61487;SDS011;47351;53.326;-6.298;2022-10-30T13:49:47;6.30;;;1.30;;
61487;SDS011;47351;53.326;-6.298;2022-10-30T13:52:26;6.70;;;1.60;;
61487;SDS011;47351;53.326;-6.298;2022-10-30T13:55:01;3.70;;;1.00;;
61487;SDS011;47351;53.326;-6.298;2022-10-30T13:57:38;5.60;;;1.10;;
61487;SDS011;47351;53.326;-6.298;2022-10-30T14:00:15;6.50;;;1.80;;
61487;SDS011;47351;53.326;-6.298;2022-10-30T14:02:55;7.30;;;1.30;;
61487;SDS011;47351;53.326;-6.298;2022-10-30T14:05:46;5.10;;;1.30;;
61487;SDS011;47351;53.326;-6.298;2022-10-30T14:08:23;4.60;;;0.90;;
61487;SDS011;47351;53.326;-6.298;2022-10-30T14:11:01;4.40;;;1.00;;
61487;SDS011;47351;53.326;-6.298;2022-10-30T14:13:51;7.90;;;1.10;;
61487;SDS011;47351;53.326;-6.298;2022-10-30T14:16:31;4.70;;;1.00;;
61487;SDS011;47351;53.326;-6.298;2022-10-30T14:19:05;6.30;;;1.20;;
61487;SDS011;47351;53.326;-6.298;2022-10-30T14:21:44;5.90;;;1.00;;
61487;SDS011;47351;53.326;-6.298;2022-10-30T14:24:22;4.00;;;0.90;;
61487;SDS011;47351;53.326;-6.298;2022-10-30T14:27:07;5.00;;;0.90;;
61487;SDS011;47351;53.326;-6.298;2022-10-30T14:41:14;4.00;;;0.80;;
61487;SDS011;47351;53.326;-6.298;2022-10-30T14:44:12;6.10;;;1.10;;
61487;SDS011;47351;53.326;-6.298;2022-10-30T14:46:55;2.30;;;0.70;;
61487;SDS011;47351;53.326;-6.298;2022-10-30T14:49:43;2.60;;;1.00;;
61487;SDS011;47351;53.326;-6.298;2022-10-30T14:52:21;7.00;;;1.20;;
61487;SDS011;47351;53.326;-6.298;2022-10-30T14:55:07;3.70;;;0.80;;
61487;SDS011;47351;53.326;-6.298;2022-10-30T14:57:52;5.40;;;0.80;;
61487;SDS011;47351;53.326;-6.298;2022-10-30T15:00:43;3.60;;;0.80;;
61487;SDS011;47351;53.326;-6.298;2022-10-30T15:06:19;4.90;;;1.10;;
61487;SDS011;47351;53.326;-6.298;2022-10-30T15:14:53;1.90;;;0.70;;
61487;SDS011;47351;53.326;-6.298;2022-10-30T15:17:27;3.70;;;1.00;;
61487;SDS011;47351;53.326;-6.298;2022-10-30T15:20:03;4.00;;;0.90;;
61487;SDS011;47351;53.326;-6.298;2022-10-30T15:22:41;4.50;;;0.70;;
61487;SDS011;47351;53.326;-6.298;2022-10-30T15:25:17;3.20;;;0.70;;
61487;SDS011;47351;53.326;-6.298;2022-10-30T15:27:51;4.20;;;0.80;;
61487;SDS011;47351;53.326;-6.298;2022-10-30T15:30:25;3.50;;;1.00;;
61487;SDS011;47351;53.326;-6.298;2022-10-30T15:32:57;3.50;;;0.90;;
61487;SDS011;47351;53.326;-6.298;2022-10-30T15:35:29;3.90;;;1.20;;
61487;SDS011;47351;53.326;-6.298;2022-10-30T15:38:01;2.80;;;0.90;;
61487;SDS011;47351;53.326;-6.298;2022-10-30T15:40:34;3.00;;;0.80;;
61487;SDS011;47351;53.326;-6.298;2022-10-30T15:43:07;4.10;;;0.80;;
61487;SDS011;47351;53.326;-6.298;2022-10-30T15:45:44;2.40;;;0.80;;
61487;SDS011;47351;53.326;-6.298;2022-10-30T15:48:20;4.50;;;1.20;;
61487;SDS011;47351;53.326;-6.298;2022-10-30T15:50:57;5.60;;;1.10;;
61487;SDS011;47351;53.326;-6.298;2022-10-30T15:53:32;6.50;;;1.20;;
61487;SDS011;47351;53.326;-6.298;2022-10-30T15:56:11;5.40;;;1.10;;
61487;SDS011;47351;53.326;-6.298;2022-10-30T15:58:49;5.40;;;1.20;;